createdAt,value
2022-09-28T00:02:16.026Z,100.00
2022-09-28T00:05:01.969Z,100.00
2022-09-28T00:07:46.858Z,100.00
2022-09-28T00:10:31.681Z,100.00
2022-09-28T00:13:16.475Z,100.00
2022-09-28T00:16:07.813Z,100.00
2022-09-28T00:18:54.179Z,100.00
2022-09-28T00:21:41.447Z,100.00
2022-09-28T00:24:27.822Z,100.00
2022-09-28T00:27:13.246Z,100.00
2022-09-28T00:29:58.940Z,100.00
2022-09-28T00:32:44.316Z,100.00
2022-09-28T00:35:29.568Z,100.00
2022-09-28T00:38:14.355Z,100.00
2022-09-28T00:40:59.977Z,100.00
2022-09-28T00:43:45.321Z,100.00
2022-09-28T00:46:35.303Z,100.00
2022-09-28T00:49:27.595Z,100.00
2022-09-28T00:52:17.804Z,100.00
2022-09-28T00:55:06.765Z,100.00
2022-09-28T00:57:56.910Z,100.00
2022-09-28T01:00:42.849Z,100.00
2022-09-28T01:03:28.397Z,100.00
2022-09-28T01:06:19.271Z,100.00
2022-09-28T01:09:08.475Z,100.00
2022-09-28T01:11:53.402Z,100.00
2022-09-28T01:14:40.608Z,100.00
2022-09-28T01:17:36.333Z,100.00
2022-09-28T01:20:29.382Z,100.00
2022-09-28T01:23:23.636Z,100.00
2022-09-28T01:26:20.582Z,100.00
2022-09-28T01:29:44.166Z,100.00
2022-09-28T01:32:34.996Z,100.00
2022-09-28T01:35:28.796Z,100.00
2022-09-28T01:38:25.214Z,100.00
2022-09-28T01:41:12.201Z,100.00
2022-09-28T01:44:00.682Z,100.00
2022-09-28T01:46:49.160Z,100.00
2022-09-28T01:49:39.142Z,100.00
2022-09-28T01:52:30.263Z,100.00
2022-09-28T01:55:49.826Z,100.00
2022-09-28T01:58:50.673Z,100.00
2022-09-28T02:01:43.632Z,100.00
2022-09-28T02:04:47.197Z,100.00
2022-09-28T02:07:38.557Z,100.00
2022-09-28T02:10:30.004Z,100.00
2022-09-28T02:13:20.766Z,100.00
2022-09-28T02:16:09.032Z,100.00
2022-09-28T02:18:54.582Z,100.00
2022-09-28T02:21:45.920Z,100.00
2022-09-28T02:24:52.906Z,100.00
2022-09-28T02:27:45.020Z,100.00
2022-09-28T02:30:31.651Z,100.00
2022-09-28T02:33:22.066Z,100.00
2022-09-28T02:36:07.517Z,100.00
2022-09-28T02:38:53.404Z,100.00
2022-09-28T02:41:59.632Z,100.00
2022-09-28T02:44:44.632Z,100.00
2022-09-28T02:47:48.998Z,100.00
2022-09-28T02:50:34.198Z,100.00
2022-09-28T02:53:34.556Z,100.00
2022-09-28T02:56:35.855Z,100.00
2022-09-28T02:59:39.106Z,100.00
2022-09-28T03:02:49.167Z,100.00
2022-09-28T03:05:46.956Z,100.00
2022-09-28T03:08:44.780Z,100.00
2022-09-28T03:11:36.140Z,100.00
2022-09-28T03:14:22.200Z,100.00
2022-09-28T03:17:07.376Z,100.00
2022-09-28T03:19:52.298Z,100.00
2022-09-28T03:22:38.045Z,100.00
2022-09-28T03:25:23.066Z,100.00
2022-09-28T03:28:08.111Z,100.00
2022-09-28T03:30:53.015Z,100.00
2022-09-28T03:33:37.757Z,100.00
2022-09-28T03:36:22.722Z,100.00
2022-09-28T03:39:08.051Z,100.00
2022-09-28T03:41:53.085Z,100.00
2022-09-28T03:44:37.972Z,100.00
2022-09-28T03:47:22.900Z,100.00
2022-09-28T03:50:08.258Z,100.00
2022-09-28T03:52:53.718Z,100.00
2022-09-28T03:55:38.579Z,100.00
2022-09-28T03:58:23.749Z,100.00
2022-09-28T04:01:16.604Z,100.00
2022-09-28T04:04:02.585Z,100.00
2022-09-28T04:06:47.830Z,100.00
2022-09-28T04:09:32.613Z,100.00
2022-09-28T04:12:17.465Z,100.00
2022-09-28T04:15:02.638Z,100.00
2022-09-28T04:17:47.798Z,100.00
2022-09-28T04:20:32.713Z,100.00
2022-09-28T04:23:17.621Z,100.00
2022-09-28T04:26:04.198Z,100.00
2022-09-28T04:28:50.470Z,100.00
2022-09-28T04:31:45.794Z,100.00
2022-09-28T04:34:35.736Z,100.00
2022-09-28T04:37:22.487Z,100.00
2022-09-28T04:40:08.169Z,100.00
2022-09-28T04:42:57.333Z,100.00
2022-09-28T04:45:42.269Z,100.00
2022-09-28T04:48:28.132Z,100.00
2022-09-28T04:51:13.113Z,100.00
2022-09-28T04:53:59.006Z,100.00
2022-09-28T04:56:44.211Z,100.00
2022-09-28T04:59:29.698Z,100.00
2022-09-28T05:02:14.785Z,100.00
2022-09-28T05:05:00.010Z,100.00
2022-09-28T05:07:44.929Z,100.00
2022-09-28T05:10:29.894Z,100.00
2022-09-28T05:13:15.578Z,100.00
2022-09-28T05:16:05.261Z,100.00
2022-09-28T05:18:55.403Z,100.00
2022-09-28T05:21:44.310Z,100.00
2022-09-28T05:24:29.357Z,100.00
2022-09-28T05:27:14.507Z,100.00
2022-09-28T05:29:59.661Z,100.00
2022-09-28T05:32:44.662Z,100.00
2022-09-28T05:35:30.444Z,100.00
2022-09-28T05:38:15.645Z,100.00
2022-09-28T05:41:05.712Z,100.00
2022-09-28T05:43:52.057Z,100.00
2022-09-28T05:46:37.065Z,100.00
2022-09-28T05:49:21.989Z,100.00
2022-09-28T05:52:06.997Z,100.00
2022-09-28T05:54:51.951Z,100.00
2022-09-28T05:57:37.353Z,100.00
2022-09-28T06:00:22.342Z,100.00
2022-09-28T06:03:11.621Z,100.00
2022-09-28T06:05:57.078Z,100.00
2022-09-28T06:08:42.509Z,100.00
2022-09-28T06:11:27.976Z,100.00
2022-09-28T06:14:13.289Z,100.00
2022-09-28T06:16:58.787Z,100.00
2022-09-28T06:19:44.260Z,100.00
2022-09-28T06:22:29.221Z,100.00
2022-09-28T06:25:14.614Z,100.00
2022-09-28T06:28:02.085Z,100.00
2022-09-28T06:30:47.361Z,100.00
2022-09-28T06:33:32.748Z,100.00
2022-09-28T06:36:18.708Z,100.00
2022-09-28T06:39:04.126Z,100.00
2022-09-28T06:41:49.086Z,100.00
2022-09-28T06:44:34.141Z,100.00
2022-09-28T06:47:18.945Z,100.00
2022-09-28T06:50:05.409Z,100.00
2022-09-28T06:52:54.532Z,100.00
2022-09-28T06:55:41.443Z,100.00
2022-09-28T06:58:26.117Z,100.00
2022-09-28T07:01:11.130Z,100.00
2022-09-28T07:03:56.379Z,100.00
2022-09-28T07:06:46.921Z,100.00
2022-09-28T07:09:33.562Z,100.00
2022-09-28T07:12:20.317Z,100.00
2022-09-28T07:15:06.626Z,100.00
2022-09-28T07:18:02.061Z,100.00
2022-09-28T07:20:54.190Z,100.00
2022-09-28T07:23:51.847Z,100.00
2022-09-28T07:26:39.101Z,100.00
2022-09-28T07:29:23.997Z,100.00
2022-09-28T07:32:09.666Z,100.00
2022-09-28T07:34:58.755Z,100.00
2022-09-28T07:37:44.199Z,100.00
2022-09-28T07:40:31.247Z,100.00
2022-09-28T07:43:18.051Z,100.00
2022-09-28T07:46:03.724Z,100.00
2022-09-28T07:48:49.183Z,100.00
2022-09-28T07:51:34.652Z,100.00
2022-09-28T07:54:20.129Z,100.00
2022-09-28T07:57:06.234Z,100.00
2022-09-28T07:59:51.237Z,100.00
2022-09-28T08:02:37.419Z,100.00
2022-09-28T08:05:22.848Z,100.00
2022-09-28T08:08:07.839Z,100.00
2022-09-28T08:10:53.163Z,100.00
2022-09-28T08:13:38.378Z,100.00
2022-09-28T08:16:24.220Z,100.00
2022-09-28T08:19:09.647Z,100.00
2022-09-28T08:21:55.311Z,100.00
2022-09-28T08:24:40.489Z,100.00
2022-09-28T08:27:25.755Z,100.00
2022-09-28T08:30:11.485Z,100.00
2022-09-28T08:32:57.272Z,100.00
2022-09-28T08:35:42.456Z,100.00
2022-09-28T08:38:29.199Z,100.00
2022-09-28T08:41:14.184Z,100.00
2022-09-28T08:44:08.173Z,100.00
2022-09-28T08:47:00.942Z,100.00
2022-09-28T08:49:48.716Z,100.00
2022-09-28T08:53:02.637Z,100.00
2022-09-28T08:55:48.302Z,100.00
2022-09-28T08:58:39.679Z,100.00
2022-09-28T09:01:28.489Z,100.00
2022-09-28T09:04:13.863Z,100.00
2022-09-28T09:07:27.185Z,100.00
2022-09-28T09:10:49.348Z,100.00
2022-09-28T09:14:04.006Z,100.00
2022-09-28T09:17:17.017Z,100.00
2022-09-28T09:20:37.245Z,100.00
2022-09-28T09:23:31.172Z,100.00
2022-09-28T09:26:25.422Z,100.00
2022-09-28T09:29:49.210Z,100.00
2022-09-28T09:32:43.684Z,100.00
2022-09-28T09:35:41.169Z,100.00
2022-09-28T09:39:03.932Z,100.00
2022-09-28T09:42:24.682Z,100.00
2022-09-28T09:45:34.336Z,100.00
2022-09-28T09:48:23.238Z,100.00
2022-09-28T09:51:22.101Z,100.00
2022-09-28T09:54:18.444Z,100.00
2022-09-28T09:57:12.982Z,100.00
2022-09-28T10:00:01.699Z,100.00
2022-09-28T10:02:49.550Z,100.00
2022-09-28T10:05:35.805Z,100.00
2022-09-28T10:08:23.604Z,100.00
2022-09-28T10:11:15.323Z,100.00
2022-09-28T10:14:00.183Z,100.00
2022-09-28T10:16:46.461Z,100.00
2022-09-28T10:19:34.725Z,100.00
2022-09-28T10:22:23.747Z,100.00
2022-09-28T10:25:10.272Z,100.00
2022-09-28T10:27:57.552Z,100.00
2022-09-28T10:30:43.136Z,100.00
2022-09-28T10:33:33.857Z,100.00
2022-09-28T10:36:19.183Z,100.00
2022-09-28T10:39:05.894Z,100.00
2022-09-28T10:41:51.571Z,100.00
2022-09-28T10:44:52.515Z,100.00
2022-09-28T10:47:38.037Z,100.00
2022-09-28T10:50:26.460Z,100.00
2022-09-28T10:53:18.590Z,100.00
2022-09-28T10:56:07.157Z,100.00
2022-09-28T10:58:52.343Z,100.00
2022-09-28T11:01:37.104Z,100.00
2022-09-28T11:04:27.730Z,100.00
2022-09-28T11:07:22.368Z,100.00
2022-09-28T11:10:21.347Z,100.00
2022-09-28T11:13:09.499Z,100.00
2022-09-28T11:15:54.340Z,100.00
2022-09-28T11:18:39.262Z,100.00
2022-09-28T11:21:30.042Z,100.00
2022-09-28T11:24:18.912Z,100.00
2022-09-28T11:27:04.664Z,100.00
2022-09-28T11:29:57.830Z,100.00
2022-09-28T11:32:45.237Z,100.00
2022-09-28T11:35:55.000Z,100.00
2022-09-28T11:39:06.821Z,100.00
2022-09-28T11:42:16.133Z,100.00
2022-09-28T11:45:23.314Z,100.00
2022-09-28T11:48:13.073Z,100.00
2022-09-28T11:51:15.416Z,100.00
2022-09-28T11:54:17.924Z,100.00
2022-09-28T11:57:06.316Z,100.00
2022-09-28T11:59:59.809Z,100.00
2022-09-28T12:02:54.680Z,100.00
2022-09-28T12:05:57.946Z,100.00
2022-09-28T12:08:48.945Z,100.00
2022-09-28T12:11:39.036Z,100.00
2022-09-28T12:14:31.056Z,99.96
2022-09-28T12:17:25.169Z,100.00
2022-09-28T12:20:16.701Z,100.00
2022-09-28T12:23:17.676Z,100.00
2022-09-28T12:26:10.725Z,100.00
2022-09-28T12:29:00.937Z,97.36
2022-09-28T12:32:02.742Z,99.47
2022-09-28T12:34:48.315Z,99.96
2022-09-28T12:37:54.689Z,98.06
2022-09-28T12:40:51.363Z,96.80
2022-09-28T12:43:58.694Z,97.40
2022-09-28T12:47:06.750Z,96.51
2022-09-28T12:50:47.506Z,93.25
2022-09-28T12:53:53.171Z,93.59
2022-09-28T12:56:49.727Z,95.88
2022-09-28T12:59:49.949Z,96.88
2022-09-28T13:02:50.193Z,95.06
2022-09-28T13:06:12.206Z,97.34
2022-09-28T13:09:20.857Z,98.90
2022-09-28T13:12:31.251Z,100.00
2022-09-28T13:15:35.763Z,100.00
2022-09-28T13:18:55.904Z,100.00
2022-09-28T13:22:02.067Z,100.00
2022-09-28T13:24:48.704Z,100.00
2022-09-28T13:27:42.032Z,100.00
2022-09-28T13:30:27.181Z,100.00
2022-09-28T13:33:23.037Z,100.00
2022-09-28T13:36:30.180Z,100.00
2022-09-28T13:39:46.251Z,100.00
2022-09-28T13:42:46.712Z,100.00
2022-09-28T13:45:51.522Z,99.65
2022-09-28T13:49:05.797Z,98.55
2022-09-28T13:51:59.897Z,99.27
2022-09-28T13:54:58.113Z,97.23
2022-09-28T13:57:49.932Z,96.33
2022-09-28T14:00:46.368Z,96.67
2022-09-28T14:04:03.274Z,93.11
2022-09-28T14:07:15.189Z,93.63
2022-09-28T14:10:34.357Z,93.21
2022-09-28T14:13:41.405Z,95.14
2022-09-28T14:16:31.261Z,95.60
2022-09-28T14:19:25.934Z,93.56
2022-09-28T14:22:17.037Z,95.99
2022-09-28T14:25:01.796Z,93.94
2022-09-28T14:27:53.459Z,94.20
2022-09-28T14:30:41.969Z,94.25
2022-09-28T14:33:32.846Z,92.20
2022-09-28T14:36:35.003Z,94.00
2022-09-28T14:39:31.067Z,92.07
2022-09-28T14:42:20.448Z,92.99
2022-09-28T14:45:07.345Z,94.98
2022-09-28T14:48:13.676Z,93.70
2022-09-28T14:51:24.849Z,90.99
2022-09-28T14:54:10.085Z,92.85
2022-09-28T14:57:14.953Z,90.83
2022-09-28T15:00:07.326Z,92.66
2022-09-28T15:02:56.075Z,94.30
2022-09-28T15:05:46.053Z,95.02
2022-09-28T15:08:39.293Z,94.50
2022-09-28T15:11:26.277Z,94.29
2022-09-28T15:14:11.459Z,92.26
2022-09-28T15:16:58.202Z,92.97
2022-09-28T15:19:58.421Z,93.07
2022-09-28T15:22:49.000Z,91.83
2022-09-28T15:25:34.375Z,89.75
2022-09-28T15:28:22.201Z,89.94
2022-09-28T15:31:16.505Z,90.04
2022-09-28T15:34:01.901Z,91.50
2022-09-28T15:36:47.512Z,94.98
2022-09-28T15:39:34.080Z,93.26
2022-09-28T15:42:20.189Z,94.10
2022-09-28T15:45:22.987Z,92.83
2022-09-28T15:48:29.352Z,95.11
2022-09-28T15:51:14.613Z,97.86
2022-09-28T15:54:14.823Z,98.20
2022-09-28T15:57:02.738Z,99.18
2022-09-28T15:59:54.392Z,98.53
2022-09-28T16:03:16.228Z,97.99
2022-09-28T16:06:06.303Z,97.38
2022-09-28T16:08:51.408Z,98.66
2022-09-28T16:11:39.586Z,95.86
2022-09-28T16:14:26.685Z,92.50
2022-09-28T16:17:24.743Z,86.00
2022-09-28T16:20:27.681Z,86.99
2022-09-28T16:23:32.348Z,90.44
2022-09-28T16:26:29.949Z,93.58
2022-09-28T16:29:35.302Z,95.11
2022-09-28T16:32:23.719Z,94.86
2022-09-28T16:35:20.661Z,95.26
2022-09-28T16:38:11.877Z,94.78
2022-09-28T16:40:57.144Z,94.95
2022-09-28T16:43:42.575Z,95.93
2022-09-28T16:46:35.304Z,97.80
2022-09-28T16:49:22.672Z,100.00
2022-09-28T16:52:14.137Z,100.00
2022-09-28T16:54:59.301Z,99.75
2022-09-28T16:57:46.837Z,99.55
2022-09-28T17:00:32.523Z,99.64
2022-09-28T17:03:18.237Z,100.00
2022-09-28T17:06:04.797Z,100.00
2022-09-28T17:08:49.908Z,100.00
2022-09-28T17:11:35.290Z,100.00
2022-09-28T17:14:20.146Z,100.00
2022-09-28T17:17:11.582Z,100.00
2022-09-28T17:20:01.400Z,100.00
2022-09-28T17:22:46.669Z,100.00
2022-09-28T17:25:31.653Z,100.00
2022-09-28T17:28:16.440Z,100.00
2022-09-28T17:31:03.980Z,100.00
2022-09-28T17:33:49.288Z,100.00
2022-09-28T17:36:34.308Z,100.00
2022-09-28T17:39:19.241Z,100.00
2022-09-28T17:42:04.456Z,100.00
2022-09-28T17:44:49.749Z,100.00
2022-09-28T17:47:34.617Z,100.00
2022-09-28T17:50:24.488Z,100.00
2022-09-28T17:53:10.189Z,100.00
2022-09-28T17:55:55.251Z,100.00
2022-09-28T17:58:41.562Z,100.00
2022-09-28T18:01:27.036Z,100.00
2022-09-28T18:04:33.331Z,100.00
2022-09-28T18:07:20.429Z,100.00
2022-09-28T18:10:07.014Z,100.00
2022-09-28T18:12:52.066Z,100.00
2022-09-28T18:15:37.085Z,100.00
2022-09-28T18:18:24.106Z,100.00
2022-09-28T18:21:11.808Z,100.00
2022-09-28T18:23:57.132Z,100.00
2022-09-28T18:26:42.099Z,100.00
2022-09-28T18:29:31.029Z,100.00
2022-09-28T18:32:18.079Z,100.00
2022-09-28T18:35:08.394Z,100.00
2022-09-28T18:37:53.634Z,100.00
2022-09-28T18:40:38.761Z,100.00
2022-09-28T18:43:24.131Z,100.00
2022-09-28T18:46:10.994Z,100.00
2022-09-28T18:48:56.172Z,100.00
2022-09-28T18:51:41.408Z,100.00
2022-09-28T18:54:26.307Z,100.00
2022-09-28T18:57:11.141Z,100.00
2022-09-28T18:59:55.979Z,100.00
2022-09-28T19:02:41.436Z,100.00
2022-09-28T19:05:26.579Z,100.00
2022-09-28T19:08:11.637Z,100.00
2022-09-28T19:11:10.532Z,100.00
2022-09-28T19:13:55.640Z,100.00
2022-09-28T19:16:40.890Z,100.00
2022-09-28T19:19:26.040Z,100.00
2022-09-28T19:22:12.308Z,100.00
2022-09-28T19:24:58.421Z,100.00
2022-09-28T19:27:43.495Z,100.00
2022-09-28T19:30:28.444Z,100.00
2022-09-28T19:33:13.562Z,100.00
2022-09-28T19:36:14.226Z,100.00
2022-09-28T19:39:00.542Z,100.00
2022-09-28T19:41:45.856Z,100.00
2022-09-28T19:44:32.905Z,100.00
2022-09-28T19:47:18.319Z,100.00
2022-09-28T19:50:03.317Z,100.00
2022-09-28T19:52:48.845Z,100.00
2022-09-28T19:55:34.000Z,100.00
2022-09-28T19:58:19.894Z,100.00
2022-09-28T20:01:06.278Z,100.00
2022-09-28T20:03:51.465Z,100.00
2022-09-28T20:06:37.663Z,100.00
2022-09-28T20:09:22.749Z,100.00
2022-09-28T20:12:08.067Z,100.00
2022-09-28T20:14:53.021Z,100.00
2022-09-28T20:17:37.768Z,100.00
2022-09-28T20:20:22.820Z,100.00
2022-09-28T20:23:11.397Z,100.00
2022-09-28T20:25:58.115Z,100.00
2022-09-28T20:28:43.482Z,100.00
2022-09-28T20:31:28.844Z,100.00
2022-09-28T20:34:14.173Z,100.00
2022-09-28T20:36:59.752Z,100.00
2022-09-28T20:39:45.286Z,100.00
2022-09-28T20:42:30.715Z,100.00
2022-09-28T20:45:16.214Z,100.00
2022-09-28T20:48:03.121Z,100.00
2022-09-28T20:50:48.347Z,100.00
2022-09-28T20:53:33.925Z,100.00
2022-09-28T20:56:28.115Z,100.00
2022-09-28T20:59:13.073Z,100.00
2022-09-28T21:01:58.083Z,100.00
2022-09-28T21:04:44.101Z,100.00
2022-09-28T21:07:29.453Z,100.00
2022-09-28T21:10:14.498Z,100.00
2022-09-28T21:12:59.634Z,100.00
2022-09-28T21:15:45.173Z,100.00
2022-09-28T21:18:30.923Z,100.00
2022-09-28T21:21:18.082Z,100.00
2022-09-28T21:24:03.640Z,100.00
2022-09-28T21:26:48.835Z,100.00
2022-09-28T21:29:33.816Z,100.00
2022-09-28T21:32:19.274Z,100.00
2022-09-28T21:35:05.051Z,100.00
2022-09-28T21:37:49.960Z,100.00
2022-09-28T21:40:35.167Z,100.00
2022-09-28T21:43:20.615Z,100.00
2022-09-28T21:46:05.752Z,100.00
2022-09-28T21:48:52.266Z,100.00
2022-09-28T21:51:37.427Z,100.00
2022-09-28T21:54:22.401Z,100.00
2022-09-28T21:57:08.005Z,100.00
2022-09-28T21:59:53.262Z,100.00
2022-09-28T22:02:38.541Z,100.00
2022-09-28T22:05:24.107Z,100.00
2022-09-28T22:08:09.784Z,100.00
2022-09-28T22:11:08.969Z,100.00
2022-09-28T22:13:59.249Z,100.00
2022-09-28T22:16:44.278Z,100.00
2022-09-28T22:19:29.149Z,100.00
2022-09-28T22:22:14.337Z,100.00
2022-09-28T22:24:59.526Z,100.00
2022-09-28T22:27:44.770Z,100.00
2022-09-28T22:30:30.762Z,100.00
2022-09-28T22:33:15.728Z,100.00
2022-09-28T22:36:01.139Z,100.00
2022-09-28T22:38:47.240Z,100.00
2022-09-28T22:41:32.854Z,100.00
2022-09-28T22:44:18.886Z,100.00
2022-09-28T22:47:04.225Z,100.00
2022-09-28T22:49:49.090Z,100.00
2022-09-28T22:52:34.314Z,100.00
2022-09-28T22:55:19.313Z,100.00
2022-09-28T22:58:04.244Z,100.00
2022-09-28T23:00:49.433Z,100.00
2022-09-28T23:03:34.492Z,100.00
2022-09-28T23:06:22.060Z,100.00
2022-09-28T23:09:07.135Z,100.00
2022-09-28T23:11:52.111Z,100.00
2022-09-28T23:14:37.009Z,100.00
2022-09-28T23:17:22.019Z,100.00
2022-09-28T23:20:07.562Z,100.00
2022-09-28T23:22:52.511Z,100.00
2022-09-28T23:25:37.306Z,100.00
2022-09-28T23:28:24.361Z,100.00
2022-09-28T23:31:12.383Z,100.00
2022-09-28T23:33:59.226Z,100.00
2022-09-28T23:36:44.432Z,100.00
2022-09-28T23:39:29.589Z,100.00
2022-09-28T23:42:14.457Z,100.00
2022-09-28T23:44:59.433Z,100.00
2022-09-28T23:47:44.324Z,100.00
2022-09-28T23:50:29.556Z,100.00
2022-09-28T23:53:15.231Z,100.00
2022-09-28T23:56:01.121Z,100.00
2022-09-28T23:58:46.406Z,100.00
